Time;durP1;ratioP1;P1;durP2;ratioP2;P2;SDS_P1;SDS_P2;PMS_P1;PMS_P2;Temp;Humidity;BMP_temperature;BMP_pressure;BME280_temperature;BME280_humidity;BME280_pressure;Samples;Min_cycle;Max_cycle;Signal;HPM_P1;HPM_P2
2020/12/19 00:01:38;;;;;;;27.80;9.40;;;;;;;;;;5066278;28;20235;-77
2020/12/19 00:04:05;;;;;;;51.80;10.67;;;;;;;;;;5042914;28;20234;-77
2020/12/19 00:06:33;;;;;;;41.97;11.10;;;;;;;;;;5066460;28;20219;-79
2020/12/19 00:09:01;;;;;;;63.03;11.87;;;;;;;;;;5056460;28;20227;-77
2020/12/19 00:11:33;;;;;;;49.87;9.90;;;;;;;;;;5062562;28;20223;-77
2020/12/19 00:14:01;;;;;;;90.63;12.13;;;;;;;;;;5062775;28;20222;-77
2020/12/19 00:16:29;;;;;;;108.83;13.23;;;;;;;;;;5059585;28;20227;-77
2020/12/19 00:18:57;;;;;;;21.60;10.47;;;;;;;;;;5063275;28;20607;-78
2020/12/19 00:21:32;;;;;;;106.17;12.73;;;;;;;;;;5056460;28;20231;-77
2020/12/19 00:24:00;;;;;;;117.63;11.97;;;;;;;;;;5042334;28;20700;-77
2020/12/19 00:26:33;;;;;;;156.20;14.30;;;;;;;;;;5063001;28;20728;-78
2020/12/19 00:29:00;;;;;;;29.67;9.80;;;;;;;;;;5061799;28;20223;-78
2020/12/19 00:31:28;;;;;;;77.47;11.37;;;;;;;;;;5056483;28;20235;-78
2020/12/19 00:33:56;;;;;;;71.03;10.37;;;;;;;;;;5071137;28;20242;-78
2020/12/19 00:36:24;;;;;;;41.07;10.63;;;;;;;;;;5060818;28;20222;-78
2020/12/19 00:38:52;;;;;;;38.13;10.57;;;;;;;;;;5057208;28;20211;-78
2020/12/19 00:41:22;;;;;;;42.77;11.33;;;;;;;;;;5059150;28;20234;-78
2020/12/19 00:43:49;;;;;;;55.27;11.40;;;;;;;;;;5039443;28;20206;-78
2020/12/19 00:46:17;;;;;;;37.73;11.23;;;;;;;;;;5049612;28;20219;-78
2020/12/19 00:48:45;;;;;;;46.43;11.40;;;;;;;;;;5055399;28;20238;-78
2020/12/19 00:51:13;;;;;;;65.53;12.23;;;;;;;;;;5042000;28;20234;-78
2020/12/19 00:53:42;;;;;;;60.37;10.03;;;;;;;;;;5048355;28;20219;-78
2020/12/19 00:56:21;;;;;;;40.57;9.83;;;;;;;;;;5053750;28;20210;-78
2020/12/19 00:58:49;;;;;;;39.63;9.07;;;;;;;;;;5064010;28;20616;-78
2020/12/19 01:01:18;;;;;;;23.37;8.60;;;;;;;;;;5041768;28;20227;-78
2020/12/19 01:03:47;;;;;;;67.97;11.57;;;;;;;;;;5046007;28;20249;-78
2020/12/19 01:06:16;;;;;;;57.50;9.50;;;;;;;;;;5049735;28;20250;-78
2020/12/19 01:08:45;;;;;;;144.43;12.80;;;;;;;;;;5064270;28;20233;-78
2020/12/19 01:11:28;;;;;;;147.80;11.70;;;;;;;;;;5056885;28;20240;-78
2020/12/19 01:13:56;;;;;;;90.57;10.43;;;;;;;;;;5066182;28;20237;-78
2020/12/19 01:16:25;;;;;;;57.47;9.47;;;;;;;;;;5038047;28;20222;-78
2020/12/19 01:18:55;;;;;;;37.67;8.87;;;;;;;;;;5062504;28;20231;-78
2020/12/19 01:21:25;;;;;;;62.43;9.27;;;;;;;;;;5059430;28;20623;-78
2020/12/19 01:23:52;;;;;;;60.23;10.67;;;;;;;;;;5062520;28;20574;-78
2020/12/19 01:26:21;;;;;;;36.77;9.20;;;;;;;;;;5064356;28;20219;-78
2020/12/19 01:28:49;;;;;;;50.70;8.63;;;;;;;;;;5075416;28;20223;-78
2020/12/19 01:31:18;;;;;;;54.73;9.60;;;;;;;;;;5063089;28;20227;-78
2020/12/19 01:33:47;;;;;;;54.83;8.90;;;;;;;;;;5066907;28;20260;-78
2020/12/19 01:36:15;;;;;;;66.57;11.10;;;;;;;;;;5060562;28;20608;-77
2020/12/19 01:38:43;;;;;;;49.07;9.27;;;;;;;;;;5046718;28;20340;-78
2020/12/19 01:41:10;;;;;;;46.43;8.63;;;;;;;;;;5067277;28;20755;-78
2020/12/19 01:43:43;;;;;;;64.57;9.27;;;;;;;;;;5065464;28;20235;-78
2020/12/19 01:46:12;;;;;;;47.27;9.30;;;;;;;;;;5057502;28;20219;-78
2020/12/19 01:48:40;;;;;;;46.20;8.67;;;;;;;;;;5065757;28;20227;-78
2020/12/19 01:51:07;;;;;;;45.77;8.60;;;;;;;;;;5066882;28;20223;-78
2020/12/19 01:53:35;;;;;;;55.90;8.93;;;;;;;;;;5061580;28;20228;-78
2020/12/19 01:56:03;;;;;;;63.60;9.47;;;;;;;;;;5061524;28;20712;-78
2020/12/19 01:58:30;;;;;;;53.13;9.57;;;;;;;;;;5056665;28;20219;-78
2020/12/19 02:00:59;;;;;;;46.63;8.90;;;;;;;;;;5057327;28;20718;-78
2020/12/19 02:03:36;;;;;;;103.27;13.40;;;;;;;;;;5064219;28;20407;-78
2020/12/19 02:06:05;;;;;;;36.33;8.27;;;;;;;;;;5068161;28;20743;-78
2020/12/19 02:08:32;;;;;;;24.90;8.73;;;;;;;;;;5065982;28;20226;-78
2020/12/19 02:11:01;;;;;;;46.50;9.07;;;;;;;;;;5057255;28;20242;-78
2020/12/19 02:13:29;;;;;;;53.07;8.97;;;;;;;;;;5058816;28;20600;-77
2020/12/19 02:15:57;;;;;;;65.47;9.43;;;;;;;;;;5063195;28;20309;-78
2020/12/19 02:18:24;;;;;;;99.00;9.40;;;;;;;;;;5067448;28;20226;-78
2020/12/19 02:20:53;;;;;;;30.73;8.63;;;;;;;;;;5067213;28;20441;-78
2020/12/19 02:23:21;;;;;;;37.63;8.07;;;;;;;;;;5064372;28;20238;-78
2020/12/19 02:25:49;;;;;;;40.73;8.30;;;;;;;;;;5065799;28;20231;-78
2020/12/19 02:28:17;;;;;;;28.23;7.53;;;;;;;;;;5059340;28;20219;-78
2020/12/19 02:30:45;;;;;;;51.77;8.10;;;;;;;;;;5068847;28;20234;-78
2020/12/19 02:33:12;;;;;;;46.80;8.53;;;;;;;;;;5058931;28;20982;-78
2020/12/19 02:35:40;;;;;;;29.63;7.67;;;;;;;;;;5061440;28;20630;-78
2020/12/19 02:38:07;;;;;;;54.43;7.70;;;;;;;;;;5062990;28;20222;-78
2020/12/19 02:40:36;;;;;;;40.53;7.60;;;;;;;;;;5063826;28;20231;-78
2020/12/19 02:43:03;;;;;;;75.27;9.87;;;;;;;;;;5063107;28;20222;-79
2020/12/19 02:45:31;;;;;;;45.77;10.33;;;;;;;;;;5056214;28;20227;-78
2020/12/19 02:47:58;;;;;;;51.77;8.47;;;;;;;;;;5065082;28;20223;-78
2020/12/19 02:50:26;;;;;;;45.80;7.80;;;;;;;;;;5063496;28;20230;-78
2020/12/19 02:52:53;;;;;;;37.00;8.27;;;;;;;;;;5058155;28;20230;-78
2020/12/19 02:55:21;;;;;;;60.77;7.63;;;;;;;;;;5064236;28;20889;-78
2020/12/19 02:57:51;;;;;;;67.93;9.83;;;;;;;;;;5066777;28;20600;-78
2020/12/19 03:00:18;;;;;;;97.27;10.30;;;;;;;;;;5062617;28;20226;-78
2020/12/19 03:02:45;;;;;;;61.37;9.20;;;;;;;;;;5065974;28;20223;-78
2020/12/19 03:05:13;;;;;;;97.23;10.90;;;;;;;;;;5058309;28;20244;-78
2020/12/19 03:07:40;;;;;;;118.17;11.50;;;;;;;;;;5059234;28;20233;-78
2020/12/19 03:10:08;;;;;;;59.27;9.97;;;;;;;;;;5066241;28;20230;-78
2020/12/19 03:12:35;;;;;;;41.57;9.20;;;;;;;;;;5043569;28;20226;-78
2020/12/19 03:15:04;;;;;;;94.90;10.80;;;;;;;;;;5062586;28;20226;-78
2020/12/19 03:17:31;;;;;;;34.73;8.83;;;;;;;;;;5063311;28;20252;-78
2020/12/19 03:19:59;;;;;;;38.70;9.30;;;;;;;;;;5061833;28;20612;-78
2020/12/19 03:22:27;;;;;;;31.77;8.50;;;;;;;;;;5063957;28;20708;-78
2020/12/19 03:24:54;;;;;;;30.60;8.17;;;;;;;;;;5068659;28;20617;-78
2020/12/19 03:27:21;;;;;;;37.97;8.33;;;;;;;;;;5065849;28;20746;-78
2020/12/19 03:29:49;;;;;;;24.70;7.37;;;;;;;;;;5042452;28;20223;-78
2020/12/19 03:32:18;;;;;;;22.73;8.10;;;;;;;;;;5042641;28;20227;-78
2020/12/19 03:34:45;;;;;;;153.73;11.37;;;;;;;;;;5064456;28;20245;-78
2020/12/19 03:37:13;;;;;;;24.10;7.83;;;;;;;;;;5059664;28;20738;-78
2020/12/19 03:39:40;;;;;;;144.63;12.23;;;;;;;;;;5062196;28;20226;-78
2020/12/19 03:42:08;;;;;;;79.07;9.83;;;;;;;;;;5059845;28;20230;-78
2020/12/19 03:44:35;;;;;;;26.17;7.70;;;;;;;;;;5058832;28;20235;-78
2020/12/19 03:47:03;;;;;;;17.27;7.70;;;;;;;;;;5066716;28;20218;-78
2020/12/19 03:49:31;;;;;;;67.20;9.27;;;;;;;;;;5058121;28;20229;-78
2020/12/19 03:51:58;;;;;;;62.43;8.63;;;;;;;;;;5060213;28;20239;-78
2020/12/19 03:54:26;;;;;;;52.43;9.23;;;;;;;;;;5064522;28;20223;-78
2020/12/19 03:56:54;;;;;;;90.53;10.67;;;;;;;;;;5062189;28;20230;-78
2020/12/19 03:59:21;;;;;;;37.10;8.07;;;;;;;;;;5063590;28;20233;-78
2020/12/19 04:01:48;;;;;;;78.07;9.60;;;;;;;;;;5035993;28;20234;-78
2020/12/19 04:04:16;;;;;;;73.87;8.90;;;;;;;;;;5062412;28;20747;-78
2020/12/19 04:07:00;;;;;;;119.07;10.83;;;;;;;;;;5064259;28;20234;-78
2020/12/19 04:09:27;;;;;;;34.03;8.93;;;;;;;;;;5063297;28;20222;-78
2020/12/19 04:11:55;;;;;;;27.90;8.47;;;;;;;;;;5054463;28;20693;-78
2020/12/19 04:14:36;;;;;;;44.70;9.40;;;;;;;;;;5049059;28;20222;-78
2020/12/19 04:17:06;;;;;;;38.23;9.60;;;;;;;;;;5061037;28;20238;-78
2020/12/19 04:19:33;;;;;;;40.10;9.17;;;;;;;;;;5052412;28;20226;-78
2020/12/19 04:22:13;;;;;;;64.67;10.40;;;;;;;;;;5046146;28;20746;-78
2020/12/19 04:24:41;;;;;;;97.63;11.40;;;;;;;;;;5056283;28;20241;-77
2020/12/19 04:27:08;;;;;;;40.10;9.33;;;;;;;;;;5064508;28;20597;-77
2020/12/19 04:29:35;;;;;;;37.90;9.87;;;;;;;;;;5042786;28;20249;-77
2020/12/19 04:32:03;;;;;;;24.17;8.03;;;;;;;;;;5059727;28;20234;-78
2020/12/19 04:34:30;;;;;;;59.43;9.90;;;;;;;;;;5059341;28;20242;-77
2020/12/19 04:36:58;;;;;;;19.87;8.10;;;;;;;;;;5063142;28;20237;-78
2020/12/19 04:39:27;;;;;;;62.07;9.57;;;;;;;;;;5066493;28;20233;-78
2020/12/19 04:41:54;;;;;;;67.00;10.03;;;;;;;;;;5060626;28;20708;-78
2020/12/19 04:44:22;;;;;;;31.93;8.53;;;;;;;;;;5060560;28;20226;-77
2020/12/19 04:46:50;;;;;;;35.50;8.43;;;;;;;;;;5055913;28;20227;-78
2020/12/19 04:49:19;;;;;;;20.20;6.87;;;;;;;;;;5062880;28;20210;-78
2020/12/19 04:51:46;;;;;;;25.60;7.13;;;;;;;;;;5067673;28;20222;-77
2020/12/19 04:54:14;;;;;;;35.57;7.50;;;;;;;;;;5092536;28;20215;-78
2020/12/19 04:56:43;;;;;;;60.90;8.87;;;;;;;;;;5076396;28;20219;-78
2020/12/19 04:59:11;;;;;;;39.57;6.43;;;;;;;;;;5067199;28;20219;-78
2020/12/19 05:01:38;;;;;;;21.17;6.77;;;;;;;;;;5065189;28;20235;-78
2020/12/19 05:04:12;;;;;;;54.50;7.43;;;;;;;;;;5065379;28;20230;-78
2020/12/19 05:06:40;;;;;;;34.57;7.07;;;;;;;;;;5053373;28;20227;-77
2020/12/19 05:09:09;;;;;;;28.37;6.13;;;;;;;;;;5067764;28;20233;-77
2020/12/19 05:11:37;;;;;;;27.87;5.33;;;;;;;;;;5070658;28;20233;-77
2020/12/19 05:14:06;;;;;;;9.30;4.90;;;;;;;;;;5068380;28;20210;-78
2020/12/19 05:16:34;;;;;;;17.73;5.03;;;;;;;;;;5040407;28;20235;-77
2020/12/19 05:19:07;;;;;;;16.70;4.93;;;;;;;;;;5061815;28;20223;-78
2020/12/19 05:21:43;;;;;;;20.03;4.83;;;;;;;;;;5060058;28;20238;-77
2020/12/19 05:24:14;;;;;;;15.77;4.87;;;;;;;;;;5040872;28;20223;-78
2020/12/19 05:26:42;;;;;;;45.50;6.60;;;;;;;;;;5047337;28;20245;-78
2020/12/19 05:29:12;;;;;;;12.37;5.57;;;;;;;;;;5060158;28;20225;-78
2020/12/19 05:31:39;;;;;;;30.67;6.53;;;;;;;;;;5072799;28;20234;-78
2020/12/19 05:34:07;;;;;;;68.47;7.53;;;;;;;;;;5048551;28;20223;-78
2020/12/19 05:36:37;;;;;;;14.17;5.53;;;;;;;;;;5067546;28;20784;-78
2020/12/19 05:39:06;;;;;;;29.50;5.80;;;;;;;;;;5062409;28;20219;-78
2020/12/19 05:41:38;;;;;;;22.00;5.93;;;;;;;;;;5063516;28;20231;-78
2020/12/19 05:44:06;;;;;;;24.23;5.63;;;;;;;;;;5067350;28;20230;-78
2020/12/19 05:46:35;;;;;;;28.23;4.90;;;;;;;;;;5065257;28;20223;-78
2020/12/19 05:49:05;;;;;;;17.37;5.07;;;;;;;;;;5065383;28;20775;-78
2020/12/19 05:51:34;;;;;;;79.73;7.33;;;;;;;;;;5063592;28;20226;-78
2020/12/19 05:54:03;;;;;;;15.77;6.03;;;;;;;;;;5054180;28;20233;-78
2020/12/19 05:56:33;;;;;;;25.33;6.03;;;;;;;;;;5065293;28;20588;-78
2020/12/19 05:59:03;;;;;;;54.53;6.70;;;;;;;;;;5070003;28;20226;-78
2020/12/19 06:01:31;;;;;;;52.03;6.90;;;;;;;;;;5067144;28;20231;-78
2020/12/19 06:04:03;;;;;;;52.83;6.90;;;;;;;;;;5058723;28;20704;-78
2020/12/19 06:06:31;;;;;;;75.20;7.83;;;;;;;;;;5050881;28;20219;-78
2020/12/19 06:09:00;;;;;;;53.93;7.13;;;;;;;;;;5054805;28;20607;-78
2020/12/19 06:11:29;;;;;;;22.97;6.10;;;;;;;;;;5059562;28;20612;-78
2020/12/19 06:13:57;;;;;;;71.77;7.50;;;;;;;;;;5062898;28;20225;-78
2020/12/19 06:16:26;;;;;;;71.80;7.70;;;;;;;;;;5053159;28;20734;-78
2020/12/19 06:19:03;;;;;;;40.63;6.70;;;;;;;;;;5064261;28;20261;-78
2020/12/19 06:21:31;;;;;;;100.70;8.33;;;;;;;;;;5049444;28;20226;-78
2020/12/19 06:23:59;;;;;;;24.40;6.53;;;;;;;;;;5056274;28;20226;-78
2020/12/19 06:26:37;;;;;;;53.37;6.17;;;;;;;;;;5047308;28;20219;-78
2020/12/19 06:29:05;;;;;;;74.20;7.63;;;;;;;;;;5062405;28;20233;-78
2020/12/19 06:31:33;;;;;;;46.37;7.20;;;;;;;;;;5060685;28;20595;-78
2020/12/19 06:34:04;;;;;;;21.77;6.70;;;;;;;;;;5062568;28;20226;-78
2020/12/19 06:36:33;;;;;;;24.47;6.93;;;;;;;;;;5082714;28;20215;-80
2020/12/19 06:39:09;;;;;;;26.43;6.00;;;;;;;;;;5102581;28;20214;-78
2020/12/19 06:41:41;;;;;;;17.60;6.10;;;;;;;;;;5062667;28;20226;-78
2020/12/19 06:44:11;;;;;;;18.53;6.27;;;;;;;;;;5062287;28;20584;-78
2020/12/19 06:46:38;;;;;;;22.60;6.13;;;;;;;;;;5046005;28;20241;-78
2020/12/19 06:49:28;;;;;;;49.77;6.60;;;;;;;;;;5061421;28;20222;-78
2020/12/19 06:52:00;;;;;;;51.37;6.67;;;;;;;;;;5058043;28;20235;-78
2020/12/19 06:54:29;;;;;;;20.03;5.97;;;;;;;;;;5047299;28;20693;-78
2020/12/19 06:56:56;;;;;;;34.40;6.20;;;;;;;;;;5060704;28;20228;-78
2020/12/19 06:59:25;;;;;;;34.60;6.43;;;;;;;;;;5060110;28;20595;-78
2020/12/19 07:01:52;;;;;;;37.93;7.03;;;;;;;;;;5065952;28;20715;-78
2020/12/19 07:04:34;;;;;;;54.80;8.63;;;;;;;;;;5071575;28;20230;-77
2020/12/19 07:07:03;;;;;;;90.53;10.47;;;;;;;;;;5063329;28;20225;-78
2020/12/19 07:09:30;;;;;;;31.63;8.43;;;;;;;;;;5054424;28;20223;-77
2020/12/19 07:11:58;;;;;;;38.50;9.20;;;;;;;;;;5071265;28;20230;-78
2020/12/19 07:14:26;;;;;;;41.10;9.57;;;;;;;;;;5046527;28;20231;-77
2020/12/19 07:16:53;;;;;;;72.70;10.40;;;;;;;;;;5064030;28;20246;-78
2020/12/19 07:19:24;;;;;;;51.40;9.27;;;;;;;;;;5068088;28;20599;-78
2020/12/19 07:21:54;;;;;;;15.90;8.37;;;;;;;;;;5067719;28;20231;-78
2020/12/19 07:24:22;;;;;;;32.97;10.07;;;;;;;;;;5070813;28;20706;-78
2020/12/19 07:26:50;;;;;;;55.13;10.40;;;;;;;;;;5063171;28;20242;-78
2020/12/19 07:29:20;;;;;;;70.30;10.37;;;;;;;;;;5058781;28;20231;-78
2020/12/19 07:31:50;;;;;;;43.13;9.23;;;;;;;;;;5063368;28;20227;-78
2020/12/19 07:34:18;;;;;;;52.77;9.43;;;;;;;;;;5062572;28;20225;-78
2020/12/19 07:36:51;;;;;;;37.70;9.90;;;;;;;;;;5042073;28;20238;-78
2020/12/19 07:39:20;;;;;;;30.07;8.00;;;;;;;;;;5061894;28;20223;-78
2020/12/19 07:42:00;;;;;;;20.50;8.03;;;;;;;;;;5067104;28;20245;-78
2020/12/19 07:44:28;;;;;;;14.07;8.20;;;;;;;;;;5064139;28;20222;-78
2020/12/19 07:46:57;;;;;;;82.77;10.63;;;;;;;;;;5065738;28;22031;-78
2020/12/19 07:49:30;;;;;;;139.37;12.57;;;;;;;;;;5041576;28;20592;-78
2020/12/19 07:52:12;;;;;;;44.53;8.27;;;;;;;;;;5055150;28;20238;-78
2020/12/19 07:54:41;;;;;;;24.93;8.40;;;;;;;;;;5069021;28;20242;-77
2020/12/19 07:57:11;;;;;;;23.63;8.83;;;;;;;;;;5076510;28;20233;-78
2020/12/19 07:59:40;;;;;;;34.73;8.33;;;;;;;;;;5084048;28;20245;-78
2020/12/19 08:02:08;;;;;;;34.47;9.03;;;;;;;;;;5074894;28;20227;-78
2020/12/19 08:04:35;;;;;;;41.73;9.87;;;;;;;;;;5076030;28;20437;-78
2020/12/19 08:07:03;;;;;;;25.83;8.17;;;;;;;;;;5055411;28;20720;-78
2020/12/19 08:09:36;;;;;;;20.17;8.63;;;;;;;;;;5052384;28;20215;-77
2020/12/19 08:12:04;;;;;;;36.43;8.60;;;;;;;;;;5046132;28;20234;-77
2020/12/19 08:14:33;;;;;;;39.73;9.67;;;;;;;;;;5055986;28;20223;-78
2020/12/19 08:17:02;;;;;;;39.00;10.07;;;;;;;;;;5062169;28;20234;-77
2020/12/19 08:19:34;;;;;;;34.23;10.83;;;;;;;;;;5058968;28;20229;-77
2020/12/19 08:22:02;;;;;;;29.47;9.37;;;;;;;;;;5045644;28;20230;-77
2020/12/19 08:24:30;;;;;;;35.53;9.63;;;;;;;;;;5064216;28;20228;-77
2020/12/19 08:27:46;;;;;;;21.67;8.80;;;;;;;;;;5062511;28;20707;-78
2020/12/19 08:30:31;;;;;;;45.53;9.83;;;;;;;;;;5054634;28;20235;-77
2020/12/19 08:33:00;;;;;;;30.03;9.57;;;;;;;;;;5051470;28;20222;-77
2020/12/19 08:35:29;;;;;;;25.40;9.63;;;;;;;;;;5056190;28;20227;-78
2020/12/19 08:38:07;;;;;;;47.77;10.83;;;;;;;;;;5052036;28;20572;-77
2020/12/19 08:40:37;;;;;;;30.20;8.77;;;;;;;;;;5058676;28;20222;-78
2020/12/19 08:43:06;;;;;;;24.43;8.20;;;;;;;;;;5053474;28;20238;-77
2020/12/19 08:45:34;;;;;;;26.07;8.80;;;;;;;;;;5051026;28;20720;-79
2020/12/19 08:48:04;;;;;;;39.23;10.40;;;;;;;;;;5065953;28;20738;-78
2020/12/19 08:50:42;;;;;;;28.13;10.63;;;;;;;;;;5054187;28;20237;-78
2020/12/19 08:53:12;;;;;;;26.97;11.10;;;;;;;;;;5064692;28;20226;-78
2020/12/19 08:55:40;;;;;;;28.40;11.90;;;;;;;;;;5050482;28;20234;-78
2020/12/19 08:58:20;;;;;;;82.70;12.80;;;;;;;;;;5052285;28;22338;-78
2020/12/19 09:00:47;;;;;;;54.67;11.90;;;;;;;;;;5049031;28;20270;-78
2020/12/19 09:03:15;;;;;;;55.23;14.43;;;;;;;;;;5054506;28;20241;-78
2020/12/19 09:05:43;;;;;;;69.93;12.93;;;;;;;;;;5053134;28;20242;-78
2020/12/19 09:08:13;;;;;;;45.50;11.57;;;;;;;;;;5059001;28;20223;-78
2020/12/19 09:10:41;;;;;;;38.43;11.27;;;;;;;;;;5052448;28;20576;-78
2020/12/19 09:13:12;;;;;;;35.00;11.17;;;;;;;;;;5056648;28;20230;-78
2020/12/19 09:15:41;;;;;;;24.87;10.97;;;;;;;;;;5034293;28;20230;-78
2020/12/19 09:18:16;;;;;;;37.50;11.37;;;;;;;;;;5044054;28;20234;-77
2020/12/19 09:20:45;;;;;;;48.57;11.60;;;;;;;;;;5060896;28;20230;-78
2020/12/19 09:23:13;;;;;;;20.50;9.70;;;;;;;;;;5052060;28;20230;-78
2020/12/19 09:25:41;;;;;;;25.87;12.47;;;;;;;;;;5054013;28;20244;-78
2020/12/19 09:28:08;;;;;;;25.20;11.13;;;;;;;;;;5049689;28;20236;-78
2020/12/19 09:30:36;;;;;;;32.67;11.37;;;;;;;;;;5052701;28;20877;-76
2020/12/19 09:33:04;;;;;;;29.53;11.37;;;;;;;;;;5044582;28;20238;-78
2020/12/19 09:35:32;;;;;;;27.27;12.00;;;;;;;;;;5049943;28;21300;-77
2020/12/19 09:37:59;;;;;;;38.57;11.40;;;;;;;;;;5020517;28;21168;-78
2020/12/19 09:40:29;;;;;;;27.43;11.70;;;;;;;;;;5037455;28;20220;-78
2020/12/19 09:42:56;;;;;;;20.10;9.67;;;;;;;;;;5047968;28;20347;-78
2020/12/19 09:45:24;;;;;;;62.70;11.33;;;;;;;;;;5048011;28;20238;-77
2020/12/19 09:47:53;;;;;;;75.23;12.47;;;;;;;;;;5050541;28;20228;-77
2020/12/19 09:50:21;;;;;;;23.90;10.07;;;;;;;;;;5066091;28;20219;-80
2020/12/19 09:52:49;;;;;;;45.93;11.33;;;;;;;;;;5070634;28;20280;-80
2020/12/19 09:55:18;;;;;;;32.73;10.53;;;;;;;;;;5062638;28;20253;-79
2020/12/19 09:57:45;;;;;;;19.13;9.77;;;;;;;;;;5066371;28;20236;-80
2020/12/19 10:00:13;;;;;;;51.87;11.17;;;;;;;;;;5059815;28;20234;-79
2020/12/19 10:02:41;;;;;;;37.30;10.83;;;;;;;;;;5059704;28;20241;-79
2020/12/19 10:05:10;;;;;;;95.90;10.90;;;;;;;;;;5059255;28;20238;-78
2020/12/19 10:07:38;;;;;;;32.23;9.43;;;;;;;;;;5046902;28;20618;-79
2020/12/19 10:10:07;;;;;;;47.17;10.40;;;;;;;;;;5056692;28;20230;-79
2020/12/19 10:12:34;;;;;;;38.87;9.23;;;;;;;;;;5059046;28;20230;-78
2020/12/19 10:15:02;;;;;;;37.73;9.20;;;;;;;;;;5046224;28;20231;-79
2020/12/19 10:17:30;;;;;;;18.60;9.43;;;;;;;;;;5066349;28;20225;-78
2020/12/19 10:19:57;;;;;;;27.27;9.23;;;;;;;;;;5047238;28;20959;-78
2020/12/19 10:22:25;;;;;;;32.20;8.90;;;;;;;;;;5065990;28;20230;-78
2020/12/19 10:24:53;;;;;;;32.63;9.30;;;;;;;;;;5053124;28;20223;-79
2020/12/19 10:27:20;;;;;;;28.33;9.57;;;;;;;;;;5074866;28;20567;-78
2020/12/19 10:29:48;;;;;;;50.23;11.30;;;;;;;;;;5066831;28;20590;-79
2020/12/19 10:32:16;;;;;;;46.97;10.03;;;;;;;;;;5058133;28;20230;-78
2020/12/19 10:34:43;;;;;;;35.63;10.00;;;;;;;;;;5049579;28;20230;-78
2020/12/19 10:37:11;;;;;;;18.13;8.70;;;;;;;;;;5062467;28;20245;-79
2020/12/19 10:39:39;;;;;;;19.97;9.87;;;;;;;;;;5066245;28;20235;-79
2020/12/19 10:42:08;;;;;;;23.37;9.43;;;;;;;;;;5066853;28;20578;-79
2020/12/19 10:44:35;;;;;;;93.17;10.93;;;;;;;;;;5065908;28;20231;-78
2020/12/19 10:47:03;;;;;;;26.20;9.50;;;;;;;;;;5062968;28;20234;-79
2020/12/19 10:49:30;;;;;;;50.63;10.77;;;;;;;;;;5067873;28;20215;-79
2020/12/19 10:52:02;;;;;;;21.67;10.67;;;;;;;;;;5052183;28;20747;-78
2020/12/19 10:54:30;;;;;;;37.83;10.63;;;;;;;;;;5064880;28;20394;-78
2020/12/19 10:57:00;;;;;;;31.33;10.90;;;;;;;;;;5043447;28;20223;-79
2020/12/19 10:59:29;;;;;;;17.63;10.23;;;;;;;;;;5059033;28;20223;-79
2020/12/19 11:01:57;;;;;;;23.90;10.73;;;;;;;;;;5059758;28;20239;-79
2020/12/19 11:04:24;;;;;;;30.27;11.00;;;;;;;;;;5066064;28;20219;-79
2020/12/19 11:06:53;;;;;;;38.70;10.80;;;;;;;;;;5070581;28;20245;-78
2020/12/19 11:09:20;;;;;;;20.50;9.50;;;;;;;;;;5049507;28;20218;-78
2020/12/19 11:11:55;;;;;;;28.10;10.70;;;;;;;;;;5066535;28;20231;-78
2020/12/19 11:14:25;;;;;;;22.53;10.83;;;;;;;;;;5041822;28;20768;-78
2020/12/19 11:16:56;;;;;;;22.47;11.33;;;;;;;;;;5056754;28;20228;-78
2020/12/19 11:19:36;;;;;;;33.40;12.87;;;;;;;;;;5058342;28;20227;-79
2020/12/19 11:22:03;;;;;;;29.90;13.83;;;;;;;;;;5038098;28;20230;-79
2020/12/19 11:24:31;;;;;;;30.73;13.50;;;;;;;;;;5057787;28;20230;-78
2020/12/19 11:26:59;;;;;;;30.07;12.73;;;;;;;;;;5056409;28;20715;-78
2020/12/19 11:29:27;;;;;;;23.10;12.33;;;;;;;;;;5062444;28;20223;-79
2020/12/19 11:31:55;;;;;;;20.33;11.07;;;;;;;;;;5066925;28;20226;-78
2020/12/19 11:34:22;;;;;;;39.50;12.53;;;;;;;;;;5059856;28;20245;-79
2020/12/19 11:36:50;;;;;;;32.80;12.10;;;;;;;;;;5060846;28;20226;-78
2020/12/19 11:39:18;;;;;;;24.37;11.83;;;;;;;;;;5048994;28;20253;-78
2020/12/19 11:41:46;;;;;;;28.80;12.63;;;;;;;;;;5054914;28;20237;-79
2020/12/19 11:44:13;;;;;;;28.07;12.77;;;;;;;;;;5046423;28;20246;-79
2020/12/19 11:46:44;;;;;;;33.83;14.80;;;;;;;;;;5055201;28;20230;-78
2020/12/19 11:49:12;;;;;;;30.93;15.50;;;;;;;;;;5052982;28;20223;-79
2020/12/19 11:51:40;;;;;;;34.07;15.60;;;;;;;;;;5069700;28;20231;-79
2020/12/19 11:54:08;;;;;;;38.33;15.67;;;;;;;;;;5063778;28;20235;-80
2020/12/19 11:56:37;;;;;;;33.10;15.87;;;;;;;;;;5077107;28;20218;-79
2020/12/19 11:59:05;;;;;;;27.43;15.27;;;;;;;;;;5085555;28;20204;-80
2020/12/19 12:01:32;;;;;;;29.63;13.97;;;;;;;;;;5085183;28;20230;-81
2020/12/19 12:04:00;;;;;;;30.47;14.90;;;;;;;;;;5049975;28;20222;-78
2020/12/19 12:06:29;;;;;;;28.73;14.20;;;;;;;;;;5061509;28;20238;-80
2020/12/19 12:08:57;;;;;;;38.93;17.30;;;;;;;;;;5062362;28;20727;-79
2020/12/19 12:11:26;;;;;;;31.50;16.30;;;;;;;;;;5059994;28;20709;-78
2020/12/19 12:13:54;;;;;;;35.47;17.03;;;;;;;;;;5055167;28;20231;-78
2020/12/19 12:16:22;;;;;;;33.97;17.53;;;;;;;;;;5035645;28;20234;-80
2020/12/19 12:18:50;;;;;;;36.30;17.53;;;;;;;;;;5080256;28;20230;-79
2020/12/19 12:21:18;;;;;;;50.43;19.77;;;;;;;;;;5075999;28;20223;-80
2020/12/19 12:23:46;;;;;;;35.83;18.40;;;;;;;;;;5064115;28;20215;-80
2020/12/19 12:26:21;;;;;;;39.50;19.23;;;;;;;;;;5057163;28;20234;-80
2020/12/19 12:28:48;;;;;;;40.80;20.73;;;;;;;;;;5072290;28;20226;-80
2020/12/19 12:31:21;;;;;;;39.27;19.57;;;;;;;;;;5059850;28;20700;-79
2020/12/19 12:33:48;;;;;;;46.70;21.07;;;;;;;;;;5061353;28;20720;-78
2020/12/19 12:36:19;;;;;;;46.57;21.70;;;;;;;;;;5056119;28;20238;-79
2020/12/19 12:38:47;;;;;;;50.87;20.37;;;;;;;;;;5055522;28;20245;-79
2020/12/19 12:41:15;;;;;;;55.33;23.33;;;;;;;;;;5050691;28;20218;-79
2020/12/19 12:43:43;;;;;;;49.50;21.57;;;;;;;;;;5052765;28;20837;-79
2020/12/19 12:46:11;;;;;;;51.50;21.77;;;;;;;;;;5060265;28;20222;-80
2020/12/19 12:48:39;;;;;;;48.47;21.60;;;;;;;;;;5055997;28;20231;-79
2020/12/19 12:51:07;;;;;;;54.57;22.27;;;;;;;;;;5043197;28;20231;-80
2020/12/19 12:53:36;;;;;;;48.73;21.60;;;;;;;;;;5037344;28;20242;-79
2020/12/19 12:56:04;;;;;;;47.17;20.77;;;;;;;;;;5052709;28;20236;-79
2020/12/19 12:58:32;;;;;;;49.07;21.93;;;;;;;;;;5063879;28;20218;-79
2020/12/19 13:01:00;;;;;;;51.53;23.87;;;;;;;;;;5064762;28;20604;-79
2020/12/19 13:03:28;;;;;;;46.13;19.43;;;;;;;;;;5074943;28;20711;-79
2020/12/19 13:05:56;;;;;;;52.90;21.97;;;;;;;;;;5041568;28;20242;-80
2020/12/19 13:08:23;;;;;;;51.10;22.33;;;;;;;;;;5066606;28;20230;-80
2020/12/19 13:10:52;;;;;;;54.30;22.03;;;;;;;;;;5069932;28;20227;-79
2020/12/19 13:13:19;;;;;;;78.23;21.90;;;;;;;;;;5062000;28;20237;-80
2020/12/19 13:15:47;;;;;;;86.23;25.27;;;;;;;;;;5045978;28;20719;-79
2020/12/19 13:18:16;;;;;;;51.37;21.87;;;;;;;;;;5047965;28;20222;-79
2020/12/19 13:20:43;;;;;;;43.20;19.70;;;;;;;;;;5070759;28;21427;-79
2020/12/19 13:23:11;;;;;;;47.83;20.57;;;;;;;;;;5068900;28;20231;-79
2020/12/19 13:25:39;;;;;;;49.00;20.80;;;;;;;;;;5068549;28;20631;-79
2020/12/19 13:28:09;;;;;;;41.77;19.53;;;;;;;;;;5065010;28;20596;-79
2020/12/19 13:30:38;;;;;;;68.13;20.00;;;;;;;;;;5049100;28;20223;-79
2020/12/19 13:33:06;;;;;;;46.90;17.87;;;;;;;;;;5045720;28;20238;-80
2020/12/19 13:35:33;;;;;;;52.20;17.67;;;;;;;;;;5056236;28;20223;-79
2020/12/19 13:38:01;;;;;;;42.97;17.63;;;;;;;;;;5074452;28;20242;-80
2020/12/19 13:40:28;;;;;;;58.37;16.47;;;;;;;;;;5072092;28;20223;-80
2020/12/19 13:42:56;;;;;;;32.30;15.90;;;;;;;;;;5070720;28;20242;-79
2020/12/19 13:45:24;;;;;;;36.57;17.07;;;;;;;;;;5060283;28;20720;-79
2020/12/19 13:47:52;;;;;;;33.20;16.93;;;;;;;;;;5067916;28;20238;-79
2020/12/19 13:50:19;;;;;;;36.47;15.97;;;;;;;;;;5068304;28;21072;-79
2020/12/19 13:52:47;;;;;;;49.93;16.33;;;;;;;;;;5063287;28;22122;-80
2020/12/19 13:55:14;;;;;;;42.70;15.90;;;;;;;;;;5047256;28;20646;-79
2020/12/19 13:57:42;;;;;;;49.47;18.67;;;;;;;;;;5061149;28;21571;-79
2020/12/19 14:00:11;;;;;;;61.63;16.77;;;;;;;;;;5066916;28;20611;-80
2020/12/19 14:02:39;;;;;;;45.50;16.07;;;;;;;;;;5047065;28;20728;-79
2020/12/19 14:05:07;;;;;;;58.53;18.97;;;;;;;;;;5068382;28;20233;-80
2020/12/19 14:07:43;;;;;;;35.33;16.40;;;;;;;;;;5059199;28;20246;-79
2020/12/19 14:10:16;;;;;;;39.80;16.63;;;;;;;;;;5055640;28;20231;-80
2020/12/19 14:12:43;;;;;;;44.17;16.90;;;;;;;;;;5067241;28;20250;-80
2020/12/19 14:15:12;;;;;;;36.53;16.37;;;;;;;;;;5065329;28;20223;-78
2020/12/19 14:17:41;;;;;;;40.07;15.80;;;;;;;;;;5068875;28;20226;-79
2020/12/19 14:20:08;;;;;;;39.67;17.20;;;;;;;;;;5066460;28;20230;-79
2020/12/19 14:22:37;;;;;;;38.30;16.67;;;;;;;;;;5047533;28;20230;-79
2020/12/19 14:25:05;;;;;;;41.20;18.40;;;;;;;;;;5039788;28;20222;-80
2020/12/19 14:27:34;;;;;;;45.27;17.80;;;;;;;;;;5066374;28;20230;-79
2020/12/19 14:30:02;;;;;;;40.17;16.13;;;;;;;;;;5067779;28;20218;-79
2020/12/19 14:32:29;;;;;;;36.23;15.67;;;;;;;;;;5060911;28;20503;-79
2020/12/19 14:34:57;;;;;;;43.00;16.03;;;;;;;;;;5066051;28;20219;-80